Aviation Digital Data Service (ADDS)

Output produced by METARs form (1952 UTC 23 October 2014)
found at http://www.aviationweather.gov/adds/metars/
 
KCXY 231856Z 34017G23KT 10SM BKN042 BKN100 17/07 A2984 RMK AO2 SLP106 T01670067
KCXY 231756Z 32012G19KT 10SM BKN039 16/07 A2984 RMK AO2 SLP105 T01610072 10161 20122 58018
KCXY 231656Z 33016G23KT 10SM OVC034 15/07 A2986 RMK AO2 SLP111 T01500067
KCXY 231556Z 33009KT 10SM OVC031 14/07 A2988 RMK AO2 SLP118 T01390067
KCXY 231456Z 33011G18KT 10SM OVC031 13/06 A2989 RMK AO2 SLP124 T01330061 55001
KCXY 231356Z 33014G26KT 10SM OVC031 13/06 A2989 RMK AO2 PK WND 31026/1352 SLP123 T01330061
KCXY 231256Z 31012KT 10SM OVC032 13/06 A2988 RMK AO2 SLP120 T01280056
KCXY 231156Z 33010KT 10SM OVC033 13/06 A2990 RMK AO2 SLP125 70006 T01280056 10128 20117 53003
KCXY 231056Z 30010KT 10SM OVC032 12/05 A2988 RMK AO2 SLP120 T01220050
KCXY 230956Z AUTO 32013G20KT 10SM OVC030 12/06 A2989 RMK AO2 SLP122 T01220056
KCXY 230911Z AUTO 33009KT 10SM OVC030 12/06 A2988 RMK AO2 T01220056
KCXY 230856Z AUTO 33010KT 10SM OVC029 12/06 A2989 RMK AO2 SLP121 T01220056 55005
KCXY 230840Z AUTO 34011G19KT 10SM OVC029 12/06 A2989 RMK AO2 T01220056
KCXY 230811Z AUTO 33011G17KT 10SM BKN030 OVC070 12/06 A2989 RMK AO2 T01220061
KCXY 230756Z AUTO 34013KT 10SM BKN029 OVC070 12/06 A2988 RMK AO2 SLP120 T01220061
KCXY 230748Z AUTO 35013G24KT 10SM SCT029 OVC070 12/06 A2988 RMK AO2 T01220061
KCXY 230656Z AUTO 35013KT 10SM OVC027 12/06 A2989 RMK AO2 SLP123 T01220061
KCXY 230556Z AUTO 32013G19KT 10SM OVC026 12/06 A2990 RMK AO2 PK WND 32027/0502 SLP126 T01220061 10122 20117 56019
KCXY 230456Z AUTO 34016G24KT 10SM OVC026 12/06 A2992 RMK AO2 SLP133 T01170061 401330117
KCXY 230356Z AUTO 31009G20KT 10SM OVC026 12/06 A2993 RMK AO2 SLP135 T01170061
KCXY 230256Z AUTO 33014G21KT 10SM OVC026 12/06 A2996 RMK AO2 SLP145 T01170061 58007
KCXY 230156Z AUTO 33010G23KT 10SM OVC027 12/06 A2997 RMK AO2 SLP149 T01220061
KCXY 230056Z AUTO 33013G20KT 10SM OVC028 12/06 A2998 RMK AO2 SLP153 T01220056
KCXY 222356Z 34012G22KT 10SM OVC028 12/06 A2998 RMK AO2 SLP153 60000 T01220061 10133 20122 51004
KCXY 222256Z 35010G25KT 10SM OVC026 12/06 A2998 RMK AO2 PK WND 34028/2236 SLP152 T01220061
KCXY 222156Z 35010G22KT 10SM OVC028 13/07 A2997 RMK AO2 RAB2058E10 SLP151 P0000 T01280067
KCXY 222056Z 36012G17KT 10SM OVC027 13/07 A2997 RMK AO2 SLP148 T01330072 55003
KCXY 221956Z 34013G22KT 10SM BKN025 OVC070 13/07 A2996 RMK AO2 SLP147 T01330072
KCXY 221856Z 34011G21KT 10SM OVC023 13/08 A2997 RMK AO2 SLP150 T01280078
KCXY 221756Z 34012G18KT 10SM BKN020 BKN040 OVC055 12/09 A2997 RMK AO2 RAE02 SLP151 P0000 60006 T01220089 10133 20117 58003
KCXY 221656Z 34008KT 10SM -RA BKN022 BKN040 OVC050 12/09 A2998 RMK AO2 SLP155 P0002 T01220094
KCXY 221556Z 36007KT 10SM -RA OVC020 12/09 A2999 RMK AO2 SLP157 P0003 T01220089
KCXY 221456Z 35009G15KT 10SM -RA BKN022 BKN030 OVC035 12/09 A2998 RMK AO2 SLP155 P0001 60001 T01220089 51012
KCXY 221356Z 35009KT 10SM -RA BKN023 OVC030 13/09 A2998 RMK AO2 RAB44 SLP152 P0000 T01280089
KCXY 221256Z 36008G14KT 10SM OVC025 13/08 A2997 RMK AO2 SLP149 T01330083
KCXY 221211Z 34011G16KT 10SM SCT027 BKN032 BKN065 13/08 A2995 RMK AO2 T01330083
KCXY 221156Z 34009KT 10SM BKN029 OVC060 13/08 A2995 RMK AO2 SLP143 T01330083 10133 20128 53012
KCXY 221056Z 34006KT 10SM FEW028 BKN036 BKN085 13/08 A2993 RMK AO2 SLP138 T01280083
KCXY 221015Z AUTO 34010KT 10SM SCT027 BKN095 OVC110 13/08 A2992 RMK AO2 T01330083
KCXY 220956Z AUTO 33009G15KT 10SM BKN023 OVC095 13/09 A2992 RMK AO2 SLP134 T01330089
KCXY 220856Z AUTO 34005KT 10SM BKN025 OVC040 13/09 A2991 RMK AO2 SLP131 T01330089 53003
KCXY 220803Z AUTO 34004KT 10SM BKN026 OVC032 13/08 A2990 RMK AO2 T01330083
KCXY 220756Z AUTO 34003KT 10SM SCT027 OVC032 13/09 A2990 RMK AO2 SLP127 T01330089